sensor_id;sensor_type;location;lat;lon;timestamp;P1;durP1;ratioP1;P2;durP2;ratioP2
49858;SDS011;35756;52.346;13.622;2023-07-29T00:00:48;6.57;;;3.97;;
49858;SDS011;35756;52.346;13.622;2023-07-29T00:03:13;4.80;;;3.17;;
49858;SDS011;35756;52.346;13.622;2023-07-29T00:05:38;5.90;;;3.50;;
49858;SDS011;35756;52.346;13.622;2023-07-29T00:08:04;4.30;;;3.10;;
49858;SDS011;35756;52.346;13.622;2023-07-29T00:10:31;5.50;;;3.08;;
49858;SDS011;35756;52.346;13.622;2023-07-29T00:12:57;5.20;;;3.20;;
49858;SDS011;35756;52.346;13.622;2023-07-29T00:15:22;6.38;;;3.22;;
49858;SDS011;35756;52.346;13.622;2023-07-29T00:17:47;5.25;;;2.83;;
49858;SDS011;35756;52.346;13.622;2023-07-29T00:20:12;9.13;;;3.80;;
49858;SDS011;35756;52.346;13.622;2023-07-29T00:22:38;4.88;;;3.20;;
49858;SDS011;35756;52.346;13.622;2023-07-29T00:25:03;4.68;;;3.10;;
49858;SDS011;35756;52.346;13.622;2023-07-29T00:27:29;5.50;;;3.22;;
49858;SDS011;35756;52.346;13.622;2023-07-29T00:29:54;7.28;;;3.55;;
49858;SDS011;35756;52.346;13.622;2023-07-29T00:32:19;4.60;;;3.00;;
49858;SDS011;35756;52.346;13.622;2023-07-29T00:34:45;4.63;;;3.10;;
49858;SDS011;35756;52.346;13.622;2023-07-29T00:37:10;4.78;;;3.05;;
49858;SDS011;35756;52.346;13.622;2023-07-29T00:39:35;4.88;;;2.83;;
49858;SDS011;35756;52.346;13.622;2023-07-29T00:42:02;4.18;;;2.60;;
49858;SDS011;35756;52.346;13.622;2023-07-29T00:44:27;5.10;;;3.47;;
49858;SDS011;35756;52.346;13.622;2023-07-29T00:46:52;6.13;;;3.33;;
49858;SDS011;35756;52.346;13.622;2023-07-29T00:49:18;5.20;;;3.03;;
49858;SDS011;35756;52.346;13.622;2023-07-29T00:51:44;5.75;;;3.70;;
49858;SDS011;35756;52.346;13.622;2023-07-29T00:54:09;4.75;;;3.25;;
49858;SDS011;35756;52.346;13.622;2023-07-29T00:56:35;7.28;;;3.88;;
49858;SDS011;35756;52.346;13.622;2023-07-29T00:59:01;5.65;;;3.05;;
49858;SDS011;35756;52.346;13.622;2023-07-29T01:01:27;5.43;;;3.83;;
49858;SDS011;35756;52.346;13.622;2023-07-29T01:03:53;5.13;;;3.30;;
49858;SDS011;35756;52.346;13.622;2023-07-29T01:06:33;4.85;;;3.38;;
49858;SDS011;35756;52.346;13.622;2023-07-29T01:09:20;6.18;;;3.83;;
49858;SDS011;35756;52.346;13.622;2023-07-29T01:12:12;5.70;;;3.33;;
49858;SDS011;35756;52.346;13.622;2023-07-29T01:14:50;7.70;;;3.30;;
49858;SDS011;35756;52.346;13.622;2023-07-29T01:22:33;9.25;;;3.70;;
49858;SDS011;35756;52.346;13.622;2023-07-29T01:24:59;5.35;;;3.25;;
49858;SDS011;35756;52.346;13.622;2023-07-29T01:27:24;4.70;;;3.17;;
49858;SDS011;35756;52.346;13.622;2023-07-29T01:29:50;5.32;;;3.35;;
49858;SDS011;35756;52.346;13.622;2023-07-29T01:32:18;4.47;;;3.17;;
49858;SDS011;35756;52.346;13.622;2023-07-29T01:34:47;4.95;;;3.00;;
49858;SDS011;35756;52.346;13.622;2023-07-29T01:37:14;5.18;;;3.03;;
49858;SDS011;35756;52.346;13.622;2023-07-29T01:39:45;5.93;;;3.20;;
49858;SDS011;35756;52.346;13.622;2023-07-29T01:42:11;5.13;;;3.33;;
49858;SDS011;35756;52.346;13.622;2023-07-29T01:44:36;8.75;;;3.60;;
49858;SDS011;35756;52.346;13.622;2023-07-29T01:47:02;5.00;;;3.13;;
49858;SDS011;35756;52.346;13.622;2023-07-29T01:49:27;5.32;;;3.70;;
49858;SDS011;35756;52.346;13.622;2023-07-29T01:51:52;6.80;;;3.50;;
49858;SDS011;35756;52.346;13.622;2023-07-29T01:54:18;4.63;;;3.10;;
49858;SDS011;35756;52.346;13.622;2023-07-29T01:56:43;4.65;;;3.33;;
49858;SDS011;35756;52.346;13.622;2023-07-29T01:59:08;7.03;;;3.15;;
49858;SDS011;35756;52.346;13.622;2023-07-29T02:01:34;5.53;;;3.60;;
49858;SDS011;35756;52.346;13.622;2023-07-29T02:03:59;5.88;;;3.60;;
49858;SDS011;35756;52.346;13.622;2023-07-29T02:06:24;4.75;;;3.28;;
49858;SDS011;35756;52.346;13.622;2023-07-29T02:08:50;4.97;;;3.28;;
49858;SDS011;35756;52.346;13.622;2023-07-29T02:11:16;7.10;;;3.72;;
49858;SDS011;35756;52.346;13.622;2023-07-29T02:13:41;5.75;;;3.45;;
49858;SDS011;35756;52.346;13.622;2023-07-29T02:16:06;5.30;;;3.17;;
49858;SDS011;35756;52.346;13.622;2023-07-29T02:18:32;5.10;;;3.60;;
49858;SDS011;35756;52.346;13.622;2023-07-29T02:20:57;4.40;;;3.25;;
49858;SDS011;35756;52.346;13.622;2023-07-29T02:23:22;6.00;;;3.65;;
49858;SDS011;35756;52.346;13.622;2023-07-29T02:25:48;5.72;;;3.60;;
49858;SDS011;35756;52.346;13.622;2023-07-29T02:28:13;5.88;;;3.80;;
49858;SDS011;35756;52.346;13.622;2023-07-29T02:30:40;6.78;;;4.22;;
49858;SDS011;35756;52.346;13.622;2023-07-29T02:33:06;5.30;;;3.80;;
49858;SDS011;35756;52.346;13.622;2023-07-29T02:35:31;5.47;;;3.45;;
49858;SDS011;35756;52.346;13.622;2023-07-29T02:37:56;5.85;;;3.47;;
49858;SDS011;35756;52.346;13.622;2023-07-29T02:40:21;5.20;;;3.67;;
49858;SDS011;35756;52.346;13.622;2023-07-29T02:42:47;6.00;;;3.63;;
49858;SDS011;35756;52.346;13.622;2023-07-29T02:45:13;5.22;;;3.33;;
49858;SDS011;35756;52.346;13.622;2023-07-29T02:47:38;6.38;;;3.47;;
49858;SDS011;35756;52.346;13.622;2023-07-29T02:50:03;8.43;;;3.83;;
49858;SDS011;35756;52.346;13.622;2023-07-29T02:52:29;5.13;;;3.20;;
49858;SDS011;35756;52.346;13.622;2023-07-29T02:54:54;6.88;;;3.78;;
49858;SDS011;35756;52.346;13.622;2023-07-29T02:57:20;9.45;;;3.60;;
49858;SDS011;35756;52.346;13.622;2023-07-29T02:59:45;9.77;;;3.78;;
49858;SDS011;35756;52.346;13.622;2023-07-29T03:02:11;6.45;;;4.15;;
49858;SDS011;35756;52.346;13.622;2023-07-29T03:04:36;9.45;;;3.67;;
49858;SDS011;35756;52.346;13.622;2023-07-29T03:07:01;5.45;;;3.60;;
49858;SDS011;35756;52.346;13.622;2023-07-29T03:09:27;6.18;;;3.92;;
49858;SDS011;35756;52.346;13.622;2023-07-29T03:11:52;6.15;;;4.20;;
49858;SDS011;35756;52.346;13.622;2023-07-29T03:14:19;4.90;;;3.28;;
49858;SDS011;35756;52.346;13.622;2023-07-29T03:16:44;6.50;;;3.85;;
49858;SDS011;35756;52.346;13.622;2023-07-29T03:19:10;7.40;;;3.92;;
49858;SDS011;35756;52.346;13.622;2023-07-29T03:21:35;6.05;;;3.72;;
49858;SDS011;35756;52.346;13.622;2023-07-29T03:24:00;6.47;;;3.63;;
49858;SDS011;35756;52.346;13.622;2023-07-29T03:26:26;7.28;;;3.45;;
49858;SDS011;35756;52.346;13.622;2023-07-29T03:28:51;6.55;;;3.92;;
49858;SDS011;35756;52.346;13.622;2023-07-29T03:31:17;7.03;;;3.85;;
49858;SDS011;35756;52.346;13.622;2023-07-29T03:33:42;6.32;;;3.70;;
49858;SDS011;35756;52.346;13.622;2023-07-29T03:36:07;7.00;;;3.85;;
49858;SDS011;35756;52.346;13.622;2023-07-29T03:38:32;9.20;;;4.07;;
49858;SDS011;35756;52.346;13.622;2023-07-29T03:41:00;6.47;;;3.97;;
49858;SDS011;35756;52.346;13.622;2023-07-29T03:43:27;7.13;;;4.20;;
49858;SDS011;35756;52.346;13.622;2023-07-29T03:45:52;6.10;;;3.67;;
49858;SDS011;35756;52.346;13.622;2023-07-29T03:48:17;6.55;;;4.00;;
49858;SDS011;35756;52.346;13.622;2023-07-29T03:50:43;5.85;;;3.88;;
49858;SDS011;35756;52.346;13.622;2023-07-29T03:53:08;8.60;;;4.45;;
49858;SDS011;35756;52.346;13.622;2023-07-29T03:55:34;6.70;;;4.10;;
49858;SDS011;35756;52.346;13.622;2023-07-29T03:58:00;6.75;;;4.43;;
49858;SDS011;35756;52.346;13.622;2023-07-29T04:00:25;10.07;;;4.15;;
49858;SDS011;35756;52.346;13.622;2023-07-29T04:02:51;7.30;;;4.40;;
49858;SDS011;35756;52.346;13.622;2023-07-29T04:05:16;6.30;;;4.57;;
49858;SDS011;35756;52.346;13.622;2023-07-29T04:07:42;6.10;;;4.13;;
49858;SDS011;35756;52.346;13.622;2023-07-29T04:10:07;7.15;;;4.28;;
49858;SDS011;35756;52.346;13.622;2023-07-29T04:12:33;6.85;;;4.28;;
49858;SDS011;35756;52.346;13.622;2023-07-29T04:14:58;5.95;;;4.22;;
49858;SDS011;35756;52.346;13.622;2023-07-29T04:17:23;8.38;;;4.40;;
49858;SDS011;35756;52.346;13.622;2023-07-29T04:19:49;6.47;;;4.03;;
49858;SDS011;35756;52.346;13.622;2023-07-29T04:22:15;7.55;;;4.32;;
49858;SDS011;35756;52.346;13.622;2023-07-29T04:24:40;8.20;;;4.35;;
49858;SDS011;35756;52.346;13.622;2023-07-29T04:27:06;9.13;;;5.00;;
49858;SDS011;35756;52.346;13.622;2023-07-29T04:29:31;7.60;;;4.30;;
49858;SDS011;35756;52.346;13.622;2023-07-29T04:31:56;6.47;;;4.32;;
49858;SDS011;35756;52.346;13.622;2023-07-29T04:34:22;6.10;;;4.22;;
49858;SDS011;35756;52.346;13.622;2023-07-29T04:36:47;8.77;;;4.38;;
49858;SDS011;35756;52.346;13.622;2023-07-29T04:39:12;6.45;;;3.83;;
49858;SDS011;35756;52.346;13.622;2023-07-29T04:41:38;7.15;;;4.28;;
49858;SDS011;35756;52.346;13.622;2023-07-29T04:44:03;5.93;;;3.83;;
49858;SDS011;35756;52.346;13.622;2023-07-29T04:46:28;5.78;;;4.30;;
49858;SDS011;35756;52.346;13.622;2023-07-29T04:48:54;6.43;;;4.07;;
49858;SDS011;35756;52.346;13.622;2023-07-29T04:51:19;6.50;;;5.03;;
49858;SDS011;35756;52.346;13.622;2023-07-29T04:53:44;7.85;;;5.40;;
49858;SDS011;35756;52.346;13.622;2023-07-29T04:56:10;7.43;;;5.03;;
49858;SDS011;35756;52.346;13.622;2023-07-29T04:58:35;6.78;;;4.80;;
49858;SDS011;35756;52.346;13.622;2023-07-29T05:01:01;6.65;;;4.50;;
49858;SDS011;35756;52.346;13.622;2023-07-29T05:03:27;7.75;;;5.15;;
49858;SDS011;35756;52.346;13.622;2023-07-29T05:05:52;7.35;;;5.00;;
49858;SDS011;35756;52.346;13.622;2023-07-29T05:08:20;7.22;;;5.05;;
49858;SDS011;35756;52.346;13.622;2023-07-29T05:10:48;9.13;;;4.95;;
49858;SDS011;35756;52.346;13.622;2023-07-29T05:13:14;7.50;;;5.47;;
49858;SDS011;35756;52.346;13.622;2023-07-29T05:15:40;8.48;;;4.97;;
49858;SDS011;35756;52.346;13.622;2023-07-29T05:18:05;7.35;;;4.45;;
49858;SDS011;35756;52.346;13.622;2023-07-29T05:20:30;8.35;;;4.50;;
49858;SDS011;35756;52.346;13.622;2023-07-29T05:22:55;6.93;;;4.15;;
49858;SDS011;35756;52.346;13.622;2023-07-29T05:25:21;8.55;;;4.53;;
49858;SDS011;35756;52.346;13.622;2023-07-29T05:27:46;6.45;;;4.55;;
49858;SDS011;35756;52.346;13.622;2023-07-29T05:30:11;5.53;;;3.78;;
49858;SDS011;35756;52.346;13.622;2023-07-29T05:32:37;4.95;;;3.47;;
49858;SDS011;35756;52.346;13.622;2023-07-29T05:35:02;4.38;;;3.10;;
49858;SDS011;35756;52.346;13.622;2023-07-29T05:37:27;4.28;;;3.40;;
49858;SDS011;35756;52.346;13.622;2023-07-29T05:39:53;3.53;;;2.97;;
49858;SDS011;35756;52.346;13.622;2023-07-29T05:42:18;4.90;;;3.22;;
49858;SDS011;35756;52.346;13.622;2023-07-29T05:44:43;4.13;;;2.78;;
49858;SDS011;35756;52.346;13.622;2023-07-29T05:47:08;4.32;;;2.60;;
49858;SDS011;35756;52.346;13.622;2023-07-29T05:49:34;3.65;;;2.70;;
49858;SDS011;35756;52.346;13.622;2023-07-29T05:51:59;4.75;;;2.55;;
49858;SDS011;35756;52.346;13.622;2023-07-29T05:54:24;3.53;;;2.60;;
49858;SDS011;35756;52.346;13.622;2023-07-29T05:56:50;3.50;;;2.70;;
49858;SDS011;35756;52.346;13.622;2023-07-29T05:59:15;3.53;;;2.53;;
49858;SDS011;35756;52.346;13.622;2023-07-29T06:01:40;3.75;;;2.58;;
49858;SDS011;35756;52.346;13.622;2023-07-29T06:04:05;4.25;;;2.80;;
49858;SDS011;35756;52.346;13.622;2023-07-29T06:06:31;3.30;;;2.72;;
49858;SDS011;35756;52.346;13.622;2023-07-29T06:08:56;4.97;;;3.47;;
49858;SDS011;35756;52.346;13.622;2023-07-29T06:11:21;3.03;;;2.45;;
49858;SDS011;35756;52.346;13.622;2023-07-29T06:13:47;3.55;;;2.63;;
49858;SDS011;35756;52.346;13.622;2023-07-29T06:16:12;2.75;;;2.05;;
49858;SDS011;35756;52.346;13.622;2023-07-29T06:18:38;3.47;;;2.30;;
49858;SDS011;35756;52.346;13.622;2023-07-29T06:21:03;4.43;;;2.55;;
49858;SDS011;35756;52.346;13.622;2023-07-29T06:23:32;2.78;;;2.10;;
49858;SDS011;35756;52.346;13.622;2023-07-29T06:25:57;2.70;;;2.30;;
49858;SDS011;35756;52.346;13.622;2023-07-29T06:28:23;3.40;;;2.35;;
49858;SDS011;35756;52.346;13.622;2023-07-29T06:30:48;2.88;;;2.15;;
49858;SDS011;35756;52.346;13.622;2023-07-29T06:33:13;2.75;;;2.20;;
49858;SDS011;35756;52.346;13.622;2023-07-29T06:35:39;3.03;;;2.30;;
49858;SDS011;35756;52.346;13.622;2023-07-29T06:38:04;3.75;;;2.20;;
49858;SDS011;35756;52.346;13.622;2023-07-29T06:40:29;2.80;;;2.10;;
49858;SDS011;35756;52.346;13.622;2023-07-29T06:42:54;2.65;;;2.08;;
49858;SDS011;35756;52.346;13.622;2023-07-29T06:45:20;2.90;;;2.13;;
49858;SDS011;35756;52.346;13.622;2023-07-29T06:47:45;2.40;;;1.90;;
49858;SDS011;35756;52.346;13.622;2023-07-29T06:50:10;3.90;;;2.42;;
49858;SDS011;35756;52.346;13.622;2023-07-29T06:52:36;3.67;;;2.00;;
49858;SDS011;35756;52.346;13.622;2023-07-29T06:55:03;2.42;;;1.80;;
49858;SDS011;35756;52.346;13.622;2023-07-29T06:57:28;3.15;;;2.30;;
49858;SDS011;35756;52.346;13.622;2023-07-29T06:59:54;2.22;;;1.90;;
49858;SDS011;35756;52.346;13.622;2023-07-29T07:02:19;5.05;;;2.40;;
49858;SDS011;35756;52.346;13.622;2023-07-29T07:04:44;2.08;;;1.80;;
49858;SDS011;35756;52.346;13.622;2023-07-29T07:07:10;3.13;;;2.30;;
49858;SDS011;35756;52.346;13.622;2023-07-29T07:09:35;3.50;;;2.35;;
49858;SDS011;35756;52.346;13.622;2023-07-29T07:12:00;3.88;;;2.33;;
49858;SDS011;35756;52.346;13.622;2023-07-29T07:14:26;3.33;;;2.30;;
49858;SDS011;35756;52.346;13.622;2023-07-29T07:16:51;3.53;;;2.15;;
49858;SDS011;35756;52.346;13.622;2023-07-29T07:19:16;2.35;;;1.98;;
49858;SDS011;35756;52.346;13.622;2023-07-29T07:21:41;2.20;;;1.88;;
49858;SDS011;35756;52.346;13.622;2023-07-29T07:24:07;2.15;;;1.83;;
49858;SDS011;35756;52.346;13.622;2023-07-29T07:26:32;3.90;;;2.10;;
49858;SDS011;35756;52.346;13.622;2023-07-29T07:28:57;2.78;;;2.03;;
49858;SDS011;35756;52.346;13.622;2023-07-29T07:31:23;3.17;;;2.00;;
49858;SDS011;35756;52.346;13.622;2023-07-29T07:33:48;4.97;;;2.40;;
49858;SDS011;35756;52.346;13.622;2023-07-29T07:36:13;2.78;;;2.10;;
49858;SDS011;35756;52.346;13.622;2023-07-29T07:38:38;2.75;;;2.15;;
49858;SDS011;35756;52.346;13.622;2023-07-29T07:41:04;2.72;;;2.20;;
49858;SDS011;35756;52.346;13.622;2023-07-29T07:43:29;2.92;;;2.35;;
49858;SDS011;35756;52.346;13.622;2023-07-29T07:45:57;4.32;;;2.30;;
49858;SDS011;35756;52.346;13.622;2023-07-29T07:48:23;2.13;;;1.90;;
49858;SDS011;35756;52.346;13.622;2023-07-29T07:50:49;2.67;;;2.20;;
49858;SDS011;35756;52.346;13.622;2023-07-29T07:53:14;3.42;;;2.35;;
49858;SDS011;35756;52.346;13.622;2023-07-29T07:55:39;3.08;;;2.20;;
49858;SDS011;35756;52.346;13.622;2023-07-29T07:58:05;3.10;;;2.25;;
49858;SDS011;35756;52.346;13.622;2023-07-29T08:00:30;3.22;;;2.30;;
49858;SDS011;35756;52.346;13.622;2023-07-29T08:02:55;3.63;;;2.10;;
49858;SDS011;35756;52.346;13.622;2023-07-29T08:05:21;3.20;;;2.47;;
49858;SDS011;35756;52.346;13.622;2023-07-29T08:07:46;3.25;;;2.00;;
49858;SDS011;35756;52.346;13.622;2023-07-29T08:10:11;3.08;;;2.42;;
49858;SDS011;35756;52.346;13.622;2023-07-29T08:12:36;3.72;;;2.03;;
49858;SDS011;35756;52.346;13.622;2023-07-29T08:15:02;2.78;;;2.20;;
49858;SDS011;35756;52.346;13.622;2023-07-29T08:17:28;3.78;;;1.90;;
49858;SDS011;35756;52.346;13.622;2023-07-29T08:19:53;2.55;;;2.03;;
49858;SDS011;35756;52.346;13.622;2023-07-29T08:22:18;3.00;;;2.33;;
49858;SDS011;35756;52.346;13.622;2023-07-29T08:24:43;2.70;;;2.10;;
49858;SDS011;35756;52.346;13.622;2023-07-29T08:27:09;3.80;;;2.22;;
49858;SDS011;35756;52.346;13.622;2023-07-29T08:29:34;2.78;;;2.10;;
49858;SDS011;35756;52.346;13.622;2023-07-29T08:31:59;2.00;;;1.80;;
49858;SDS011;35756;52.346;13.622;2023-07-29T08:34:25;2.85;;;2.28;;
49858;SDS011;35756;52.346;13.622;2023-07-29T08:36:50;2.97;;;2.30;;
49858;SDS011;35756;52.346;13.622;2023-07-29T08:39:15;3.10;;;2.30;;
49858;SDS011;35756;52.346;13.622;2023-07-29T08:41:43;2.70;;;2.08;;
49858;SDS011;35756;52.346;13.622;2023-07-29T08:44:19;3.00;;;1.80;;
49858;SDS011;35756;52.346;13.622;2023-07-29T08:46:47;3.42;;;2.10;;
49858;SDS011;35756;52.346;13.622;2023-07-29T08:49:13;2.58;;;2.20;;
49858;SDS011;35756;52.346;13.622;2023-07-29T08:51:39;3.35;;;2.30;;
49858;SDS011;35756;52.346;13.622;2023-07-29T08:54:06;3.50;;;1.90;;
49858;SDS011;35756;52.346;13.622;2023-07-29T08:56:32;2.58;;;1.85;;
49858;SDS011;35756;52.346;13.622;2023-07-29T08:58:57;2.78;;;2.03;;
49858;SDS011;35756;52.346;13.622;2023-07-29T09:01:25;2.75;;;2.20;;
49858;SDS011;35756;52.346;13.622;2023-07-29T09:03:50;3.08;;;2.20;;
49858;SDS011;35756;52.346;13.622;2023-07-29T09:06:15;2.80;;;2.00;;
49858;SDS011;35756;52.346;13.622;2023-07-29T09:08:41;2.42;;;1.92;;
49858;SDS011;35756;52.346;13.622;2023-07-29T09:11:06;3.45;;;2.10;;
49858;SDS011;35756;52.346;13.622;2023-07-29T09:13:32;2.30;;;1.83;;
49858;SDS011;35756;52.346;13.622;2023-07-29T09:15:57;2.28;;;1.95;;
49858;SDS011;35756;52.346;13.622;2023-07-29T09:18:23;3.13;;;1.95;;
49858;SDS011;35756;52.346;13.622;2023-07-29T09:20:51;2.83;;;2.10;;
49858;SDS011;35756;52.346;13.622;2023-07-29T09:23:16;2.47;;;1.92;;
49858;SDS011;35756;52.346;13.622;2023-07-29T09:25:42;2.70;;;2.10;;
49858;SDS011;35756;52.346;13.622;2023-07-29T09:28:08;2.47;;;1.98;;
49858;SDS011;35756;52.346;13.622;2023-07-29T09:30:37;2.22;;;1.88;;
49858;SDS011;35756;52.346;13.622;2023-07-29T09:33:03;3.03;;;2.10;;
49858;SDS011;35756;52.346;13.622;2023-07-29T09:35:29;2.75;;;2.13;;
49858;SDS011;35756;52.346;13.622;2023-07-29T09:37:56;2.92;;;2.20;;
49858;SDS011;35756;52.346;13.622;2023-07-29T09:40:21;2.45;;;1.80;;
49858;SDS011;35756;52.346;13.622;2023-07-29T09:42:50;3.05;;;2.30;;
49858;SDS011;35756;52.346;13.622;2023-07-29T09:45:23;2.22;;;1.85;;
49858;SDS011;35756;52.346;13.622;2023-07-29T09:47:49;2.30;;;1.80;;
49858;SDS011;35756;52.346;13.622;2023-07-29T09:50:14;2.55;;;2.10;;
49858;SDS011;35756;52.346;13.622;2023-07-29T09:52:40;2.63;;;1.95;;
49858;SDS011;35756;52.346;13.622;2023-07-29T09:55:06;4.70;;;2.30;;
49858;SDS011;35756;52.346;13.622;2023-07-29T09:57:32;2.97;;;2.10;;
49858;SDS011;35756;52.346;13.622;2023-07-29T09:59:57;2.28;;;1.80;;
49858;SDS011;35756;52.346;13.622;2023-07-29T10:02:23;2.60;;;1.90;;
49858;SDS011;35756;52.346;13.622;2023-07-29T10:04:50;2.58;;;1.75;;
49858;SDS011;35756;52.346;13.622;2023-07-29T10:07:16;2.33;;;1.83;;
49858;SDS011;35756;52.346;13.622;2023-07-29T10:09:42;1.90;;;1.60;;
49858;SDS011;35756;52.346;13.622;2023-07-29T10:12:09;2.47;;;1.70;;
49858;SDS011;35756;52.346;13.622;2023-07-29T10:14:34;2.83;;;1.48;;
49858;SDS011;35756;52.346;13.622;2023-07-29T10:17:00;1.50;;;1.40;;
49858;SDS011;35756;52.346;13.622;2023-07-29T10:19:25;1.80;;;1.52;;
49858;SDS011;35756;52.346;13.622;2023-07-29T10:21:51;1.60;;;1.50;;
49858;SDS011;35756;52.346;13.622;2023-07-29T10:24:18;1.77;;;1.33;;
49858;SDS011;35756;52.346;13.622;2023-07-29T10:26:46;1.77;;;1.60;;
49858;SDS011;35756;52.346;13.622;2023-07-29T10:29:12;2.85;;;1.42;;
49858;SDS011;35756;52.346;13.622;2023-07-29T10:31:38;1.48;;;1.30;;
49858;SDS011;35756;52.346;13.622;2023-07-29T10:34:06;1.73;;;1.40;;
49858;SDS011;35756;52.346;13.622;2023-07-29T10:36:31;2.22;;;1.60;;
49858;SDS011;35756;52.346;13.622;2023-07-29T10:38:57;2.10;;;1.50;;
49858;SDS011;35756;52.346;13.622;2023-07-29T10:41:22;2.20;;;1.85;;
49858;SDS011;35756;52.346;13.622;2023-07-29T10:43:48;2.45;;;1.50;;
49858;SDS011;35756;52.346;13.622;2023-07-29T10:46:20;1.65;;;1.40;;
49858;SDS011;35756;52.346;13.622;2023-07-29T10:48:56;1.52;;;1.40;;
49858;SDS011;35756;52.346;13.622;2023-07-29T10:54:03;1.65;;;1.50;;
49858;SDS011;35756;52.346;13.622;2023-07-29T10:56:36;1.85;;;1.60;;
49858;SDS011;35756;52.346;13.622;2023-07-29T10:59:22;3.83;;;1.30;;
49858;SDS011;35756;52.346;13.622;2023-07-29T11:01:58;1.90;;;1.70;;
49858;SDS011;35756;52.346;13.622;2023-07-29T11:04:24;2.10;;;1.60;;
49858;SDS011;35756;52.346;13.622;2023-07-29T11:09:41;2.33;;;1.50;;
49858;SDS011;35756;52.346;13.622;2023-07-29T11:17:34;2.05;;;1.70;;
49858;SDS011;35756;52.346;13.622;2023-07-29T11:20:01;1.92;;;1.60;;
49858;SDS011;35756;52.346;13.622;2023-07-29T11:22:27;2.35;;;1.58;;
49858;SDS011;35756;52.346;13.622;2023-07-29T11:24:53;2.70;;;2.00;;
49858;SDS011;35756;52.346;13.622;2023-07-29T11:27:18;2.25;;;1.50;;
49858;SDS011;35756;52.346;13.622;2023-07-29T11:29:43;1.50;;;1.40;;
49858;SDS011;35756;52.346;13.622;2023-07-29T11:32:09;2.20;;;1.70;;
49858;SDS011;35756;52.346;13.622;2023-07-29T11:34:34;3.50;;;2.05;;
49858;SDS011;35756;52.346;13.622;2023-07-29T11:36:59;3.42;;;2.20;;
49858;SDS011;35756;52.346;13.622;2023-07-29T11:39:25;2.75;;;1.73;;
49858;SDS011;35756;52.346;13.622;2023-07-29T11:41:50;6.22;;;1.55;;
49858;SDS011;35756;52.346;13.622;2023-07-29T11:44:18;3.30;;;1.63;;
49858;SDS011;35756;52.346;13.622;2023-07-29T11:46:44;1.55;;;1.40;;
49858;SDS011;35756;52.346;13.622;2023-07-29T11:49:09;2.95;;;1.55;;
49858;SDS011;35756;52.346;13.622;2023-07-29T11:51:35;2.33;;;1.60;;
49858;SDS011;35756;52.346;13.622;2023-07-29T11:54:01;5.57;;;1.73;;
49858;SDS011;35756;52.346;13.622;2023-07-29T11:56:26;3.40;;;1.60;;
49858;SDS011;35756;52.346;13.622;2023-07-29T11:58:53;2.38;;;1.60;;
49858;SDS011;35756;52.346;13.622;2023-07-29T12:01:18;3.10;;;1.60;;
49858;SDS011;35756;52.346;13.622;2023-07-29T12:03:44;2.35;;;1.70;;
49858;SDS011;35756;52.346;13.622;2023-07-29T12:06:09;2.70;;;1.70;;
49858;SDS011;35756;52.346;13.622;2023-07-29T12:08:35;2.20;;;1.88;;
49858;SDS011;35756;52.346;13.622;2023-07-29T12:11:00;2.42;;;1.90;;
49858;SDS011;35756;52.346;13.622;2023-07-29T12:13:25;2.50;;;1.80;;
49858;SDS011;35756;52.346;13.622;2023-07-29T12:15:51;2.50;;;1.80;;
49858;SDS011;35756;52.346;13.622;2023-07-29T12:18:16;3.00;;;1.95;;
49858;SDS011;35756;52.346;13.622;2023-07-29T12:20:42;4.38;;;2.15;;
49858;SDS011;35756;52.346;13.622;2023-07-29T12:23:07;3.05;;;1.98;;
49858;SDS011;35756;52.346;13.622;2023-07-29T12:25:33;3.42;;;2.00;;
49858;SDS011;35756;52.346;13.622;2023-07-29T12:28:03;3.58;;;1.80;;
49858;SDS011;35756;52.346;13.622;2023-07-29T12:30:29;2.60;;;2.00;;
49858;SDS011;35756;52.346;13.622;2023-07-29T12:32:55;3.45;;;2.30;;
49858;SDS011;35756;52.346;13.622;2023-07-29T12:35:20;3.78;;;2.20;;
49858;SDS011;35756;52.346;13.622;2023-07-29T12:37:45;1.85;;;1.60;;
49858;SDS011;35756;52.346;13.622;2023-07-29T12:40:20;2.63;;;1.67;;
49858;SDS011;35756;52.346;13.622;2023-07-29T12:42:47;2.35;;;1.58;;
49858;SDS011;35756;52.346;13.622;2023-07-29T12:45:14;2.17;;;1.48;;
49858;SDS011;35756;52.346;13.622;2023-07-29T12:47:40;2.28;;;1.23;;
49858;SDS011;35756;52.346;13.622;2023-07-29T12:50:05;1.25;;;1.05;;
49858;SDS011;35756;52.346;13.622;2023-07-29T12:52:31;2.60;;;1.23;;
49858;SDS011;35756;52.346;13.622;2023-07-29T12:54:56;1.60;;;1.00;;
49858;SDS011;35756;52.346;13.622;2023-07-29T12:57:21;3.45;;;1.20;;
49858;SDS011;35756;52.346;13.622;2023-07-29T12:59:47;1.40;;;1.20;;
49858;SDS011;35756;52.346;13.622;2023-07-29T13:02:12;1.80;;;1.10;;
49858;SDS011;35756;52.346;13.622;2023-07-29T13:04:37;2.08;;;1.25;;
49858;SDS011;35756;52.346;13.622;2023-07-29T13:07:03;1.42;;;1.00;;
49858;SDS011;35756;52.346;13.622;2023-07-29T13:09:28;1.05;;;1.00;;
49858;SDS011;35756;52.346;13.622;2023-07-29T13:11:53;2.65;;;1.05;;
49858;SDS011;35756;52.346;13.622;2023-07-29T13:14:18;2.25;;;1.00;;
49858;SDS011;35756;52.346;13.622;2023-07-29T13:16:44;1.60;;;1.00;;
49858;SDS011;35756;52.346;13.622;2023-07-29T13:19:09;1.20;;;1.02;;
49858;SDS011;35756;52.346;13.622;2023-07-29T13:21:34;1.15;;;1.05;;
49858;SDS011;35756;52.346;13.622;2023-07-29T13:24:00;1.08;;;0.90;;
49858;SDS011;35756;52.346;13.622;2023-07-29T13:26:25;0.88;;;0.75;;
49858;SDS011;35756;52.346;13.622;2023-07-29T13:28:50;1.42;;;0.90;;
49858;SDS011;35756;52.346;13.622;2023-07-29T13:31:15;1.52;;;1.00;;
49858;SDS011;35756;52.346;13.622;2023-07-29T13:33:41;4.20;;;0.90;;
49858;SDS011;35756;52.346;13.622;2023-07-29T13:36:06;1.60;;;0.85;;
49858;SDS011;35756;52.346;13.622;2023-07-29T13:38:33;0.88;;;0.85;;
49858;SDS011;35756;52.346;13.622;2023-07-29T13:40:58;1.33;;;1.08;;
49858;SDS011;35756;52.346;13.622;2023-07-29T13:43:23;2.42;;;1.10;;
49858;SDS011;35756;52.346;13.622;2023-07-29T13:45:49;0.98;;;0.80;;
49858;SDS011;35756;52.346;13.622;2023-07-29T13:48:15;2.78;;;1.20;;
49858;SDS011;35756;52.346;13.622;2023-07-29T13:50:40;3.05;;;1.13;;
49858;SDS011;35756;52.346;13.622;2023-07-29T13:53:06;1.70;;;0.90;;
49858;SDS011;35756;52.346;13.622;2023-07-29T13:55:31;1.42;;;0.93;;
49858;SDS011;35756;52.346;13.622;2023-07-29T13:57:56;1.70;;;1.08;;
49858;SDS011;35756;52.346;13.622;2023-07-29T14:00:22;1.02;;;0.85;;
49858;SDS011;35756;52.346;13.622;2023-07-29T14:02:47;1.40;;;1.00;;
49858;SDS011;35756;52.346;13.622;2023-07-29T14:05:12;1.80;;;1.00;;
49858;SDS011;35756;52.346;13.622;2023-07-29T14:07:39;1.27;;;1.00;;
49858;SDS011;35756;52.346;13.622;2023-07-29T14:10:04;1.10;;;1.00;;
49858;SDS011;35756;52.346;13.622;2023-07-29T14:12:30;1.75;;;1.00;;
49858;SDS011;35756;52.346;13.622;2023-07-29T14:14:55;1.67;;;1.17;;
49858;SDS011;35756;52.346;13.622;2023-07-29T14:17:20;1.98;;;1.30;;
49858;SDS011;35756;52.346;13.622;2023-07-29T14:19:45;1.42;;;1.00;;
49858;SDS011;35756;52.346;13.622;2023-07-29T14:22:11;1.38;;;1.13;;
49858;SDS011;35756;52.346;13.622;2023-07-29T14:24:36;1.73;;;1.08;;
49858;SDS011;35756;52.346;13.622;2023-07-29T14:27:01;1.55;;;1.20;;
49858;SDS011;35756;52.346;13.622;2023-07-29T14:29:28;1.50;;;1.20;;
49858;SDS011;35756;52.346;13.622;2023-07-29T14:31:53;1.95;;;1.10;;
49858;SDS011;35756;52.346;13.622;2023-07-29T14:34:18;2.00;;;1.33;;
49858;SDS011;35756;52.346;13.622;2023-07-29T14:36:43;1.00;;;1.00;;
49858;SDS011;35756;52.346;13.622;2023-07-29T14:39:09;2.28;;;1.08;;
49858;SDS011;35756;52.346;13.622;2023-07-29T14:41:34;1.17;;;1.08;;